Aiolo — DHSD2 — position and weather

sailwx.info

Track history (hours):
 
Tides and Currents Weather Stations Pressure Air Temp Water Temp Dewpoint Dewpoint Depression Visibility Wind Speed Wind Dir Waves Ship Positions

Aiolo

Last reported at 2018-Jul-17 14:57 UTC. Time now 2018-Jul-17 15:07 UTC.
Position N 43°52' E 010°14'.

Length 12 m.

Type: Sailing vessel. MMSI: 211561030.

Date/timePositionNaut miles runAvg speedWind from/ knotsBaromVisibWave heightAir tempDewpointWater temp
2018-Jul-17 14:57N 43°52' E 010°14'2 3.5
2018-Jul-17 14:30N 43°53' E 010°13'2 4.8
2018-Jul-17 14:00N 43°54' E 010°10'2 4.7
2018-Jul-17 13:30N 43°55' E 010°07'2 4.5
2018-Jul-17 13:00N 43°57' E 010°05'2 4.3
2018-Jul-17 12:30N 43°58' E 010°02'1 2.8
2018-Jul-17 12:00N 43°59' E 010°01'1 2.9
2018-Jul-17 11:30N 43°59' E 009°59'1 2.9
2018-Jul-17 11:00N 44°00' E 009°57'1 2.7
2018-Jul-17 10:30N 44°01' E 009°56'1 2.2
2018-Jul-17 09:59N 44°02' E 009°55'1 3.1
2018-Jul-17 09:30N 44°03' E 009°53'2 3.9
2018-Jul-17 09:00N 44°03' E 009°50'0 0.2
2018-Jul-17 08:29N 44°03' E 009°50'0 0.0
2018-Jul-17 07:56N 44°03' E 009°50'0 0.0
2018-Jul-17 07:26N 44°03' E 009°50'0 0.0
2018-Jul-17 06:59N 44°03' E 009°50'0 0.0
2018-Jul-17 06:26N 44°03' E 009°50'0 0.0
2018-Jul-17 05:59N 44°03' E 009°50'0 0.0
2018-Jul-17 05:29N 44°03' E 009°50'0 0.0
2018-Jul-17 04:59N 44°03' E 009°50'0 0.0
2018-Jul-17 04:26N 44°03' E 009°50'0 0.0
2018-Jul-17 03:59N 44°03' E 009°50'0 0.0
2018-Jul-17 03:26N 44°03' E 009°50'0 0.0
2018-Jul-17 02:59N 44°03' E 009°50'0 0.0
2018-Jul-17 02:29N 44°03' E 009°50'0 0.0
2018-Jul-17 01:59N 44°03' E 009°50'0 0.0
2018-Jul-17 01:26N 44°03' E 009°50'0 0.0
2018-Jul-17 00:56N 44°03' E 009°50'0 0.0
2018-Jul-17 00:29N 44°03' E 009°50'0 0.0
2018-Jul-16 23:29N 44°03' E 009°50'0 0.0
2018-Jul-16 22:59N 44°03' E 009°50'0 0.0
2018-Jul-16 22:29N 44°03' E 009°50'0 0.0
2018-Jul-16 21:56N 44°03' E 009°50'0 0.0
2018-Jul-16 21:29N 44°03' E 009°50'0 0.0
2018-Jul-16 21:00N 44°03' E 009°50'0 0.0
2018-Jul-16 20:30N 44°03' E 009°50'0 0.0
2018-Jul-16 20:00N 44°03' E 009°50'0 0.0
2018-Jul-16 19:30N 44°03' E 009°50'0 0.0
2018-Jul-16 19:00N 44°03' E 009°50'0 0.0
2018-Jul-16 18:30N 44°03' E 009°50'0 0.0
2018-Jul-16 18:00N 44°03' E 009°50'0 0.0
2018-Jul-16 17:30N 44°03' E 009°50'0 0.0
2018-Jul-16 17:00N 44°03' E 009°50'0 0.0
2018-Jul-16 16:30N 44°03' E 009°50'0 0.0
2018-Jul-16 16:00N 44°03' E 009°50'0 0.2
2018-Jul-16 15:30N 44°03' E 009°50'2 3.6
2018-Jul-16 14:59N 44°03' E 009°48'2 5.0
2018-Jul-16 14:30N 44°05' E 009°45'3 5.3
2018-Jul-16 14:00N 44°06' E 009°42'3 5.3
2018-Jul-16 13:30N 44°07' E 009°38'3 5.3
2018-Jul-16 13:00N 44°09' E 009°35'18 0.9
2018-Jul-15 15:30N 44°18' E 009°13'2 3.9
2018-Jul-15 15:00N 44°18' E 009°11'0 0.1
2018-Jul-15 12:38N 44°19' E 009°10'1 3.9
2018-Jul-15 12:30N 44°19' E 009°10'2 4.2
2018-Jul-15 12:00N 44°20' E 009°07'2 4.3
2018-Jul-15 11:30N 44°21' E 009°04'2 3.9
2018-Jul-15 11:00N 44°22' E 009°02'2 4.3
2018-Jul-15 10:30N 44°22' E 008°59'1 2.4
2018-Jul-15 10:00N 44°23' E 008°58'2 3.0
2018-Jul-15 09:30N 44°24' E 008°56'1 2.1
2018-Jul-15 09:00N 44°25' E 008°55'0 0.0
2018-Jul-15 08:30N 44°25' E 008°55'0 0.0
2018-Jul-15 07:57N 44°25' E 008°55'0 0.0
2018-Jul-15 07:30N 44°25' E 008°55'0 0.0
2018-Jul-15 06:57N 44°25' E 008°55'0 0.0
2018-Jul-15 06:30N 44°25' E 008°55'0 0.0
2018-Jul-15 05:57N 44°25' E 008°55'0 0.0
2018-Jul-15 05:30N 44°25' E 008°55'0 0.0
2018-Jul-15 05:00N 44°25' E 008°55'0 0.0
2018-Jul-15 04:30N 44°25' E 008°55'0 0.0
2018-Jul-15 04:00N 44°25' E 008°55'0 0.0
2018-Jul-15 03:30N 44°25' E 008°55'0 0.0
2018-Jul-15 03:00N 44°25' E 008°55'0 0.0
2018-Jul-15 02:30N 44°25' E 008°55'0 0.0
2018-Jul-15 02:00N 44°25' E 008°55'0 0.0
2018-Jul-15 01:30N 44°25' E 008°55'0 0.0
2018-Jul-15 01:00N 44°25' E 008°55'0 0.0
2018-Jul-15 00:30N 44°25' E 008°55'0 0.0
2018-Jul-15 00:00N 44°25' E 008°55'0 0.0
2018-Jul-14 23:30N 44°25' E 008°55'0 0.0
2018-Jul-14 23:00N 44°25' E 008°55'0 0.0
2018-Jul-14 22:30N 44°25' E 008°55'0 0.0
2018-Jul-14 22:00N 44°25' E 008°55'0 0.0
2018-Jul-14 21:30N 44°25' E 008°55'0 0.0
2018-Jul-14 21:00N 44°25' E 008°55'0 0.0
2018-Jul-14 20:30N 44°25' E 008°55'0 0.0
2018-Jul-14 20:00N 44°25' E 008°55'0 0.0
2018-Jul-14 19:30N 44°25' E 008°55'0 0.0
2018-Jul-14 19:00N 44°25' E 008°55'0 0.0
2018-Jul-14 18:27N 44°25' E 008°55'0 0.0
2018-Jul-14 17:57N 44°25' E 008°55'0 0.0
2018-Jul-14 17:30N 44°25' E 008°55'0 0.0
2018-Jul-14 17:00N 44°25' E 008°55'0 0.0
2018-Jul-14 16:30N 44°25' E 008°55'0 0.0
2018-Jul-14 15:57N 44°25' E 008°55'0 0.0
2018-Jul-14 15:30N 44°25' E 008°55'0 0.0
2018-Jul-14 15:00N 44°25' E 008°55'0 0.0
2018-Jul-14 14:30N 44°25' E 008°55'1 1.1
2018-Jul-14 13:28N 44°24' E 008°54'2 3.2
2018-Jul-14 12:58N 44°24' E 008°52'2 4.2
2018-Jul-14 12:30N 44°25' E 008°49'1 2.3
2018-Jul-14 11:57N 44°25' E 008°48'0 0.0
2018-Jul-14 11:27N 44°25' E 008°48'0 0.0
2018-Jul-14 10:54N 44°25' E 008°48'0 0.0
2018-Jul-14 10:24N 44°25' E 008°48'0 0.0
2018-Jul-14 09:54N 44°25' E 008°48'0 0.0
2018-Jul-14 09:27N 44°25' E 008°48'0 0.0
2018-Jul-14 08:57N 44°25' E 008°48'0 0.0
2018-Jul-14 08:27N 44°25' E 008°48'0 0.0
2018-Jul-14 07:57N 44°25' E 008°48'0 0.0
2018-Jul-14 07:27N 44°25' E 008°48'0 0.0
2018-Jul-14 07:00N 44°25' E 008°48'0 0.0
2018-Jul-14 06:27N 44°25' E 008°48'0 0.0
2018-Jul-14 05:57N 44°25' E 008°48'0 0.0
2018-Jul-14 05:30N 44°25' E 008°48'0 0.0
2018-Jul-14 05:00N 44°25' E 008°48'0 0.0
2018-Jul-14 04:30N 44°25' E 008°48'0 0.0
2018-Jul-14 04:00N 44°25' E 008°48'0 0.0
2018-Jul-14 03:30N 44°25' E 008°48'0 0.0
2018-Jul-14 03:00N 44°25' E 008°48'0 0.0
2018-Jul-14 02:30N 44°25' E 008°48'0 0.0
2018-Jul-14 01:57N 44°25' E 008°48'0 0.0
2018-Jul-14 01:30N 44°25' E 008°48'0 0.0
2018-Jul-14 01:00N 44°25' E 008°48'0 0.0
2018-Jul-14 00:30N 44°25' E 008°48'0 0.0
2018-Jul-14 00:00N 44°25' E 008°48'0 0.0
2018-Jul-13 23:30N 44°25' E 008°48'0 0.0
2018-Jul-13 23:00N 44°25' E 008°48'0 0.0
2018-Jul-13 22:30N 44°25' E 008°48'0 0.0
2018-Jul-13 21:51N 44°25' E 008°48'0 0.0
2018-Jul-13 21:27N 44°25' E 008°48'0 0.0
2018-Jul-13 20:57N 44°25' E 008°48'0 0.0
2018-Jul-13 20:24N 44°25' E 008°48'0 0.0
2018-Jul-13 19:54N 44°25' E 008°48'0 0.0
2018-Jul-13 19:27N 44°25' E 008°48'0 0.0
2018-Jul-13 18:54N 44°25' E 008°48'0 0.0
2018-Jul-13 18:24N 44°25' E 008°48'0 0.0
2018-Jul-13 17:54N 44°25' E 008°48'0 0.0
2018-Jul-13 17:27N 44°25' E 008°48'0 0.0
2018-Jul-13 16:57N 44°25' E 008°48'0 0.0
2018-Jul-13 16:27N 44°25' E 008°48'0 0.0
2018-Jul-13 15:57N 44°25' E 008°48'0 0.0
2018-Jul-13 15:27N 44°25' E 008°48'0 0.0
2018-Jul-13 15:00N 44°25' E 008°48'0 0.0
2018-Jul-13 14:00N 44°25' E 008°48'0 0.0
2018-Jul-13 13:30N 44°25' E 008°48'0 0.0
2018-Jul-13 13:00N 44°25' E 008°48'0 0.0
2018-Jul-13 12:30N 44°25' E 008°48'1 1.6
2018-Jul-13 12:00N 44°25' E 008°47'2 4.3
2018-Jul-13 11:30N 44°24' E 008°44'2 4.1
2018-Jul-13 11:00N 44°23' E 008°41'2 3.7
2018-Jul-13 10:30N 44°23' E 008°39'2 3.8
2018-Jul-13 10:00N 44°22' E 008°37'2 3.4
2018-Jul-13 09:30N 44°21' E 008°35'0 0.7
2018-Jul-13 08:58N 44°21' E 008°34'0 0.0
2018-Jul-13 08:28N 44°21' E 008°34'0 0.0
2018-Jul-13 07:58N 44°21' E 008°34'0 0.0
2018-Jul-13 07:28N 44°21' E 008°34'0 0.0
2018-Jul-13 06:58N 44°21' E 008°34'0 0.0
2018-Jul-13 06:28N 44°21' E 008°34'0 0.0
2018-Jul-13 05:58N 44°21' E 008°34'0 0.0
2018-Jul-13 05:28N 44°21' E 008°34'0 0.0
2018-Jul-13 04:58N 44°21' E 008°34'0 0.0
2018-Jul-13 04:28N 44°21' E 008°34'0 0.0
2018-Jul-13 03:58N 44°21' E 008°34'0 0.0
2018-Jul-13 03:28N 44°21' E 008°34'0 0.0
2018-Jul-13 02:58N 44°21' E 008°34'0 0.0
2018-Jul-13 02:28N 44°21' E 008°34'0 0.0
2018-Jul-13 01:58N 44°21' E 008°34'0 0.0
2018-Jul-13 01:25N 44°21' E 008°34'0 0.0
2018-Jul-13 00:58N 44°21' E 008°34'0 0.0
2018-Jul-13 00:28N 44°21' E 008°34'0 0.0
2018-Jul-12 23:58N 44°21' E 008°34'0 0.0
2018-Jul-12 23:28N 44°21' E 008°34'0 0.0
2018-Jul-12 22:58N 44°21' E 008°34'0 0.0
2018-Jul-12 22:28N 44°21' E 008°34'0 0.0
2018-Jul-12 21:58N 44°21' E 008°34'0 0.0
2018-Jul-12 21:28N 44°21' E 008°34'0 0.0
2018-Jul-12 20:58N 44°21' E 008°34'0 0.0
2018-Jul-12 20:28N 44°21' E 008°34'0 0.0
2018-Jul-12 19:58N 44°21' E 008°34'0 0.0
2018-Jul-12 19:28N 44°21' E 008°34'0 0.0
2018-Jul-12 18:58N 44°21' E 008°34'0 0.0
2018-Jul-12 18:28N 44°21' E 008°34'0 0.0
2018-Jul-12 17:58N 44°21' E 008°34'0 0.0
2018-Jul-12 17:28N 44°21' E 008°34'0 0.0
2018-Jul-12 16:58N 44°21' E 008°34'0 0.0
2018-Jul-12 16:28N 44°21' E 008°34'0 0.0
2018-Jul-12 15:58N 44°21' E 008°34'0 0.0
2018-Jul-12 15:28N 44°21' E 008°34'0 0.0
2018-Jul-12 14:58N 44°21' E 008°34'0 0.0
2018-Jul-12 14:28N 44°21' E 008°34'0 0.0
2018-Jul-12 13:58N 44°21' E 008°34'0 0.0
2018-Jul-12 13:28N 44°21' E 008°34'0 0.0
2018-Jul-12 12:58N 44°21' E 008°34'0 0.6
2018-Jul-12 12:30N 44°21' E 008°34'2 4.1
2018-Jul-12 12:00N 44°19' E 008°33'2 4.4
2018-Jul-12 11:30N 44°18' E 008°32'2 4.1
2018-Jul-12 11:00N 44°16' E 008°30'2 3.8
2018-Jul-12 10:30N 44°14' E 008°28'2 4.0
2018-Jul-12 10:00N 44°13' E 008°27'2 4.0
2018-Jul-12 09:29N 44°11' E 008°25'  
2018-Jul-08 19:38N 44°01' E 008°12'0 0.0
2018-Jul-08 19:23N 44°01' E 008°12'0 0.0
2018-Jul-08 18:50N 44°01' E 008°12'0 0.0
2018-Jul-08 18:23N 44°01' E 008°12'0 0.0
2018-Jul-08 18:00N 44°01' E 008°12'0 0.0
2018-Jul-08 17:22N 44°01' E 008°12'0 0.0
2018-Jul-08 16:58N 44°01' E 008°12'0 0.0
2018-Jul-08 16:22N 44°01' E 008°12'0 0.0
2018-Jul-08 15:58N 44°01' E 008°12'0 0.0
2018-Jul-08 15:25N 44°01' E 008°12'0 0.0
2018-Jul-08 14:58N 44°01' E 008°12'0 0.0
2018-Jul-08 11:48N 44°01' E 008°12'1 1.6
2018-Jul-08 11:24N 44°00' E 008°12'11 0.9
2018-Jul-07 23:02N 43°53' E 008°01'0 0.0
2018-Jul-07 22:44N 43°53' E 008°01'0 0.0
2018-Jul-07 20:17N 43°53' E 008°01'0 0.0
2018-Jul-07 19:59N 43°53' E 008°01'0 0.0
2018-Jul-07 19:26N 43°53' E 008°01'0 0.0
2018-Jul-07 18:59N 43°53' E 008°01'  
Track history (hours):
 
Tides and Currents Weather Stations Pressure Air Temp Water Temp Dewpoint Dewpoint Depression Visibility Wind Speed Wind Dir Waves Ship Positions

Aiolo

Last reported at 2018-Jul-17 14:57 UTC. Time now 2018-Jul-17 15:07 UTC.
Position N 43°52' E 010°14'.

Length 12 m.

Type: Sailing vessel. MMSI: 211561030.

Date/timePositionNaut miles runAvg speedWind from/ knotsBaromVisibWave heightAir tempDewpointWater temp
2018-Jul-17 14:57N 43°52' E 010°14'2 3.5
2018-Jul-17 14:30N 43°53' E 010°13'2 4.8
2018-Jul-17 14:00N 43°54' E 010°10'2 4.7
2018-Jul-17 13:30N 43°55' E 010°07'2 4.5
2018-Jul-17 13:00N 43°57' E 010°05'2 4.3
2018-Jul-17 12:30N 43°58' E 010°02'1 2.8
2018-Jul-17 12:00N 43°59' E 010°01'1 2.9
2018-Jul-17 11:30N 43°59' E 009°59'1 2.9
2018-Jul-17 11:00N 44°00' E 009°57'1 2.7
2018-Jul-17 10:30N 44°01' E 009°56'1 2.2
2018-Jul-17 09:59N 44°02' E 009°55'1 3.1
2018-Jul-17 09:30N 44°03' E 009°53'2 3.9
2018-Jul-17 09:00N 44°03' E 009°50'0 0.2
2018-Jul-17 08:29N 44°03' E 009°50'0 0.0
2018-Jul-17 07:56N 44°03' E 009°50'0 0.0
2018-Jul-17 07:26N 44°03' E 009°50'0 0.0
2018-Jul-17 06:59N 44°03' E 009°50'0 0.0
2018-Jul-17 06:26N 44°03' E 009°50'0 0.0
2018-Jul-17 05:59N 44°03' E 009°50'0 0.0
2018-Jul-17 05:29N 44°03' E 009°50'0 0.0
2018-Jul-17 04:59N 44°03' E 009°50'0 0.0
2018-Jul-17 04:26N 44°03' E 009°50'0 0.0
2018-Jul-17 03:59N 44°03' E 009°50'0 0.0
2018-Jul-17 03:26N 44°03' E 009°50'0 0.0
2018-Jul-17 02:59N 44°03' E 009°50'0 0.0
2018-Jul-17 02:29N 44°03' E 009°50'0 0.0
2018-Jul-17 01:59N 44°03' E 009°50'0 0.0
2018-Jul-17 01:26N 44°03' E 009°50'0 0.0
2018-Jul-17 00:56N 44°03' E 009°50'0 0.0
2018-Jul-17 00:29N 44°03' E 009°50'0 0.0
2018-Jul-16 23:29N 44°03' E 009°50'0 0.0
2018-Jul-16 22:59N 44°03' E 009°50'0 0.0
2018-Jul-16 22:29N 44°03' E 009°50'0 0.0
2018-Jul-16 21:56N 44°03' E 009°50'0 0.0
2018-Jul-16 21:29N 44°03' E 009°50'0 0.0
2018-Jul-16 21:00N 44°03' E 009°50'0 0.0
2018-Jul-16 20:30N 44°03' E 009°50'0 0.0
2018-Jul-16 20:00N 44°03' E 009°50'0 0.0
2018-Jul-16 19:30N 44°03' E 009°50'0 0.0
2018-Jul-16 19:00N 44°03' E 009°50'0 0.0
2018-Jul-16 18:30N 44°03' E 009°50'0 0.0
2018-Jul-16 18:00N 44°03' E 009°50'0 0.0
2018-Jul-16 17:30N 44°03' E 009°50'0 0.0
2018-Jul-16 17:00N 44°03' E 009°50'0 0.0
2018-Jul-16 16:30N 44°03' E 009°50'0 0.0
2018-Jul-16 16:00N 44°03' E 009°50'0 0.2
2018-Jul-16 15:30N 44°03' E 009°50'2 3.6
2018-Jul-16 14:59N 44°03' E 009°48'2 5.0
2018-Jul-16 14:30N 44°05' E 009°45'3 5.3
2018-Jul-16 14:00N 44°06' E 009°42'3 5.3
2018-Jul-16 13:30N 44°07' E 009°38'3 5.3
2018-Jul-16 13:00N 44°09' E 009°35'18 0.9
2018-Jul-15 15:30N 44°18' E 009°13'2 3.9
2018-Jul-15 15:00N 44°18' E 009°11'0 0.1
2018-Jul-15 12:38N 44°19' E 009°10'1 3.9
2018-Jul-15 12:30N 44°19' E 009°10'2 4.2
2018-Jul-15 12:00N 44°20' E 009°07'2 4.3
2018-Jul-15 11:30N 44°21' E 009°04'2 3.9
2018-Jul-15 11:00N 44°22' E 009°02'2 4.3
2018-Jul-15 10:30N 44°22' E 008°59'1 2.4
2018-Jul-15 10:00N 44°23' E 008°58'2 3.0
2018-Jul-15 09:30N 44°24' E 008°56'1 2.1
2018-Jul-15 09:00N 44°25' E 008°55'0 0.0
2018-Jul-15 08:30N 44°25' E 008°55'0 0.0
2018-Jul-15 07:57N 44°25' E 008°55'0 0.0
2018-Jul-15 07:30N 44°25' E 008°55'0 0.0
2018-Jul-15 06:57N 44°25' E 008°55'0 0.0
2018-Jul-15 06:30N 44°25' E 008°55'0 0.0
2018-Jul-15 05:57N 44°25' E 008°55'0 0.0
2018-Jul-15 05:30N 44°25' E 008°55'0 0.0
2018-Jul-15 05:00N 44°25' E 008°55'0 0.0
2018-Jul-15 04:30N 44°25' E 008°55'0 0.0
2018-Jul-15 04:00N 44°25' E 008°55'0 0.0
2018-Jul-15 03:30N 44°25' E 008°55'0 0.0
2018-Jul-15 03:00N 44°25' E 008°55'0 0.0
2018-Jul-15 02:30N 44°25' E 008°55'0 0.0
2018-Jul-15 02:00N 44°25' E 008°55'0 0.0
2018-Jul-15 01:30N 44°25' E 008°55'0 0.0
2018-Jul-15 01:00N 44°25' E 008°55'0 0.0
2018-Jul-15 00:30N 44°25' E 008°55'0 0.0
2018-Jul-15 00:00N 44°25' E 008°55'0 0.0
2018-Jul-14 23:30N 44°25' E 008°55'0 0.0
2018-Jul-14 23:00N 44°25' E 008°55'0 0.0
2018-Jul-14 22:30N 44°25' E 008°55'0 0.0
2018-Jul-14 22:00N 44°25' E 008°55'0 0.0
2018-Jul-14 21:30N 44°25' E 008°55'0 0.0
2018-Jul-14 21:00N 44°25' E 008°55'0 0.0
2018-Jul-14 20:30N 44°25' E 008°55'0 0.0
2018-Jul-14 20:00N 44°25' E 008°55'0 0.0
2018-Jul-14 19:30N 44°25' E 008°55'0 0.0
2018-Jul-14 19:00N 44°25' E 008°55'0 0.0
2018-Jul-14 18:27N 44°25' E 008°55'0 0.0
2018-Jul-14 17:57N 44°25' E 008°55'0 0.0
2018-Jul-14 17:30N 44°25' E 008°55'0 0.0
2018-Jul-14 17:00N 44°25' E 008°55'0 0.0
2018-Jul-14 16:30N 44°25' E 008°55'0 0.0
2018-Jul-14 15:57N 44°25' E 008°55'0 0.0
2018-Jul-14 15:30N 44°25' E 008°55'0 0.0
2018-Jul-14 15:00N 44°25' E 008°55'0 0.0
2018-Jul-14 14:30N 44°25' E 008°55'1 1.1
2018-Jul-14 13:28N 44°24' E 008°54'2 3.2
2018-Jul-14 12:58N 44°24' E 008°52'2 4.2
2018-Jul-14 12:30N 44°25' E 008°49'1 2.3
2018-Jul-14 11:57N 44°25' E 008°48'0 0.0
2018-Jul-14 11:27N 44°25' E 008°48'0 0.0
2018-Jul-14 10:54N 44°25' E 008°48'0 0.0
2018-Jul-14 10:24N 44°25' E 008°48'0 0.0
2018-Jul-14 09:54N 44°25' E 008°48'0 0.0
2018-Jul-14 09:27N 44°25' E 008°48'0 0.0
2018-Jul-14 08:57N 44°25' E 008°48'0 0.0
2018-Jul-14 08:27N 44°25' E 008°48'0 0.0
2018-Jul-14 07:57N 44°25' E 008°48'0 0.0
2018-Jul-14 07:27N 44°25' E 008°48'0 0.0
2018-Jul-14 07:00N 44°25' E 008°48'0 0.0
2018-Jul-14 06:27N 44°25' E 008°48'0 0.0
2018-Jul-14 05:57N 44°25' E 008°48'0 0.0
2018-Jul-14 05:30N 44°25' E 008°48'0 0.0
2018-Jul-14 05:00N 44°25' E 008°48'0 0.0
2018-Jul-14 04:30N 44°25' E 008°48'0 0.0
2018-Jul-14 04:00N 44°25' E 008°48'0 0.0
2018-Jul-14 03:30N 44°25' E 008°48'0 0.0
2018-Jul-14 03:00N 44°25' E 008°48'0 0.0
2018-Jul-14 02:30N 44°25' E 008°48'0 0.0
2018-Jul-14 01:57N 44°25' E 008°48'0 0.0
2018-Jul-14 01:30N 44°25' E 008°48'0 0.0
2018-Jul-14 01:00N 44°25' E 008°48'0 0.0
2018-Jul-14 00:30N 44°25' E 008°48'0 0.0
2018-Jul-14 00:00N 44°25' E 008°48'0 0.0
2018-Jul-13 23:30N 44°25' E 008°48'0 0.0
2018-Jul-13 23:00N 44°25' E 008°48'0 0.0
2018-Jul-13 22:30N 44°25' E 008°48'0 0.0
2018-Jul-13 21:51N 44°25' E 008°48'0 0.0
2018-Jul-13 21:27N 44°25' E 008°48'0 0.0
2018-Jul-13 20:57N 44°25' E 008°48'0 0.0
2018-Jul-13 20:24N 44°25' E 008°48'0 0.0
2018-Jul-13 19:54N 44°25' E 008°48'0 0.0
2018-Jul-13 19:27N 44°25' E 008°48'0 0.0
2018-Jul-13 18:54N 44°25' E 008°48'0 0.0
2018-Jul-13 18:24N 44°25' E 008°48'0 0.0
2018-Jul-13 17:54N 44°25' E 008°48'0 0.0
2018-Jul-13 17:27N 44°25' E 008°48'0 0.0
2018-Jul-13 16:57N 44°25' E 008°48'0 0.0
2018-Jul-13 16:27N 44°25' E 008°48'0 0.0
2018-Jul-13 15:57N 44°25' E 008°48'0 0.0
2018-Jul-13 15:27N 44°25' E 008°48'0 0.0
2018-Jul-13 15:00N 44°25' E 008°48'0 0.0
2018-Jul-13 14:00N 44°25' E 008°48'0 0.0
2018-Jul-13 13:30N 44°25' E 008°48'0 0.0
2018-Jul-13 13:00N 44°25' E 008°48'0 0.0
2018-Jul-13 12:30N 44°25' E 008°48'1 1.6
2018-Jul-13 12:00N 44°25' E 008°47'2 4.3
2018-Jul-13 11:30N 44°24' E 008°44'2 4.1
2018-Jul-13 11:00N 44°23' E 008°41'2 3.7
2018-Jul-13 10:30N 44°23' E 008°39'2 3.8
2018-Jul-13 10:00N 44°22' E 008°37'2 3.4
2018-Jul-13 09:30N 44°21' E 008°35'0 0.7
2018-Jul-13 08:58N 44°21' E 008°34'0 0.0
2018-Jul-13 08:28N 44°21' E 008°34'0 0.0
2018-Jul-13 07:58N 44°21' E 008°34'0 0.0
2018-Jul-13 07:28N 44°21' E 008°34'0 0.0
2018-Jul-13 06:58N 44°21' E 008°34'0 0.0
2018-Jul-13 06:28N 44°21' E 008°34'0 0.0
2018-Jul-13 05:58N 44°21' E 008°34'0 0.0
2018-Jul-13 05:28N 44°21' E 008°34'0 0.0
2018-Jul-13 04:58N 44°21' E 008°34'0 0.0
2018-Jul-13 04:28N 44°21' E 008°34'0 0.0
2018-Jul-13 03:58N 44°21' E 008°34'0 0.0
2018-Jul-13 03:28N 44°21' E 008°34'0 0.0
2018-Jul-13 02:58N 44°21' E 008°34'0 0.0
2018-Jul-13 02:28N 44°21' E 008°34'0 0.0
2018-Jul-13 01:58N 44°21' E 008°34'0 0.0
2018-Jul-13 01:25N 44°21' E 008°34'0 0.0
2018-Jul-13 00:58N 44°21' E 008°34'0 0.0
2018-Jul-13 00:28N 44°21' E 008°34'0 0.0
2018-Jul-12 23:58N 44°21' E 008°34'0 0.0
2018-Jul-12 23:28N 44°21' E 008°34'0 0.0
2018-Jul-12 22:58N 44°21' E 008°34'0 0.0
2018-Jul-12 22:28N 44°21' E 008°34'0 0.0
2018-Jul-12 21:58N 44°21' E 008°34'0 0.0
2018-Jul-12 21:28N 44°21' E 008°34'0 0.0
2018-Jul-12 20:58N 44°21' E 008°34'0 0.0
2018-Jul-12 20:28N 44°21' E 008°34'0 0.0
2018-Jul-12 19:58N 44°21' E 008°34'0 0.0
2018-Jul-12 19:28N 44°21' E 008°34'0 0.0
2018-Jul-12 18:58N 44°21' E 008°34'0 0.0
2018-Jul-12 18:28N 44°21' E 008°34'0 0.0
2018-Jul-12 17:58N 44°21' E 008°34'0 0.0
2018-Jul-12 17:28N 44°21' E 008°34'0 0.0
2018-Jul-12 16:58N 44°21' E 008°34'0 0.0
2018-Jul-12 16:28N 44°21' E 008°34'0 0.0
2018-Jul-12 15:58N 44°21' E 008°34'0 0.0
2018-Jul-12 15:28N 44°21' E 008°34'0 0.0
2018-Jul-12 14:58N 44°21' E 008°34'0 0.0
2018-Jul-12 14:28N 44°21' E 008°34'0 0.0
2018-Jul-12 13:58N 44°21' E 008°34'0 0.0
2018-Jul-12 13:28N 44°21' E 008°34'0 0.0
2018-Jul-12 12:58N 44°21' E 008°34'0 0.6
2018-Jul-12 12:30N 44°21' E 008°34'2 4.1
2018-Jul-12 12:00N 44°19' E 008°33'2 4.4
2018-Jul-12 11:30N 44°18' E 008°32'2 4.1
2018-Jul-12 11:00N 44°16' E 008°30'2 3.8
2018-Jul-12 10:30N 44°14' E 008°28'2 4.0
2018-Jul-12 10:00N 44°13' E 008°27'2 4.0
2018-Jul-12 09:29N 44°11' E 008°25'  
2018-Jul-08 19:38N 44°01' E 008°12'0 0.0
2018-Jul-08 19:23N 44°01' E 008°12'0 0.0
2018-Jul-08 18:50N 44°01' E 008°12'0 0.0
2018-Jul-08 18:23N 44°01' E 008°12'0 0.0
2018-Jul-08 18:00N 44°01' E 008°12'0 0.0
2018-Jul-08 17:22N 44°01' E 008°12'0 0.0
2018-Jul-08 16:58N 44°01' E 008°12'0 0.0
2018-Jul-08 16:22N 44°01' E 008°12'0 0.0
2018-Jul-08 15:58N 44°01' E 008°12'0 0.0
2018-Jul-08 15:25N 44°01' E 008°12'0 0.0
2018-Jul-08 14:58N 44°01' E 008°12'0 0.0
2018-Jul-08 11:48N 44°01' E 008°12'1 1.6
2018-Jul-08 11:24N 44°00' E 008°12'11 0.9
2018-Jul-07 23:02N 43°53' E 008°01'0 0.0
2018-Jul-07 22:44N 43°53' E 008°01'0 0.0
2018-Jul-07 20:17N 43°53' E 008°01'0 0.0
2018-Jul-07 19:59N 43°53' E 008°01'0 0.0
2018-Jul-07 19:26N 43°53' E 008°01'0 0.0
2018-Jul-07 18:59N 43°53' E 008°01'  

Dump ship's entire track history